createdAt,value
2022-08-22T00:02:09.105Z,97243.00
2022-08-22T00:02:53.437Z,97240.00
2022-08-22T00:03:08.535Z,97267.00
2022-08-22T00:03:09.413Z,97219.00
2022-08-22T00:03:11.649Z,97243.00
2022-08-22T00:04:50.768Z,97232.00
2022-08-22T00:07:31.016Z,97246.00
2022-08-22T00:10:10.088Z,97238.00
2022-08-22T00:12:50.590Z,97255.00
2022-08-22T00:15:42.181Z,97252.00
2022-08-22T00:18:18.741Z,97245.00
2022-08-22T00:21:00.466Z,97243.00
2022-08-22T00:23:38.293Z,97253.00
2022-08-22T00:26:24.574Z,97243.00
2022-08-22T00:29:00.738Z,97255.00
2022-08-22T00:31:37.408Z,97237.00
2022-08-22T00:34:14.696Z,97233.00
2022-08-22T00:36:52.019Z,97240.00
2022-08-22T00:39:28.112Z,97245.00
2022-08-22T00:42:29.544Z,97227.00
2022-08-22T00:45:45.795Z,97238.00
2022-08-22T00:48:52.289Z,97232.00
2022-08-22T00:52:16.243Z,97249.00
2022-08-22T00:55:10.549Z,97252.00
2022-08-22T00:58:00.424Z,97243.00
2022-08-22T01:00:35.059Z,97252.00
2022-08-22T01:03:35.499Z,97234.00
2022-08-22T01:06:24.318Z,97242.00
2022-08-22T01:09:06.465Z,97240.00
2022-08-22T01:12:02.861Z,97249.00
2022-08-22T01:14:42.948Z,97237.00
2022-08-22T01:17:55.110Z,97240.00
2022-08-22T01:21:30.643Z,97234.00
2022-08-22T01:25:13.162Z,97240.00
2022-08-22T01:28:48.850Z,97240.00
2022-08-22T01:32:08.535Z,97228.00
2022-08-22T01:35:37.556Z,97241.00
2022-08-22T01:38:44.880Z,97235.00
2022-08-22T01:42:01.187Z,97238.00
2022-08-22T01:45:01.697Z,97238.00
2022-08-22T01:47:40.833Z,97219.00
2022-08-22T01:50:26.238Z,97239.00
2022-08-22T01:53:03.720Z,97247.00
2022-08-22T01:55:37.990Z,97240.00
2022-08-22T01:58:19.049Z,97257.00
2022-08-22T02:01:14.598Z,97234.00
2022-08-22T02:04:00.422Z,97244.00
2022-08-22T02:06:39.611Z,97245.00
2022-08-22T02:09:21.352Z,97197.00
2022-08-22T02:11:55.768Z,97214.00
2022-08-22T02:14:44.235Z,97249.00
2022-08-22T02:17:23.653Z,97249.00
2022-08-22T02:20:04.407Z,97238.00
2022-08-22T02:22:44.593Z,97252.00
2022-08-22T02:25:22.415Z,97249.00
2022-08-22T02:27:59.335Z,97252.00
2022-08-22T02:30:47.744Z,97215.00
2022-08-22T02:33:30.950Z,97257.00
2022-08-22T02:36:14.251Z,97243.00
2022-08-22T02:38:55.590Z,97244.00
2022-08-22T02:41:36.081Z,97227.00
2022-08-22T02:44:16.755Z,97230.00
2022-08-22T02:46:59.758Z,97230.00
2022-08-22T02:49:43.947Z,97236.00
2022-08-22T02:52:19.630Z,97233.00
2022-08-22T02:54:57.529Z,97236.00
2022-08-22T02:57:39.654Z,97243.00
2022-08-22T03:00:32.365Z,97223.00
2022-08-22T03:03:07.486Z,97242.00
2022-08-22T03:06:00.520Z,97224.00
2022-08-22T03:08:33.038Z,97217.00
2022-08-22T03:11:22.293Z,97181.00
2022-08-22T03:14:07.399Z,97229.00
2022-08-22T03:16:41.541Z,97222.00
2022-08-22T03:19:38.577Z,97222.00
2022-08-22T03:22:12.374Z,97220.00
2022-08-22T03:24:55.532Z,97221.00
2022-08-22T03:27:33.032Z,97218.00
2022-08-22T03:30:11.194Z,97222.00
2022-08-22T03:32:59.207Z,97219.00
2022-08-22T03:35:38.844Z,97217.00
2022-08-22T03:38:21.085Z,97233.00
2022-08-22T03:41:24.623Z,97225.00
2022-08-22T03:44:34.476Z,97230.00
2022-08-22T03:47:38.132Z,97228.00
2022-08-22T03:50:54.745Z,97224.00
2022-08-22T03:54:09.537Z,97223.00
2022-08-22T03:57:21.948Z,97247.00
2022-08-22T04:00:12.443Z,97196.00
2022-08-22T04:03:46.459Z,97243.00
2022-08-22T04:06:56.716Z,97245.00
2022-08-22T04:09:55.775Z,97237.00
2022-08-22T04:12:51.675Z,97216.00
2022-08-22T04:16:19.051Z,97237.00
2022-08-22T04:19:17.390Z,97238.00
2022-08-22T04:22:18.900Z,97244.00
2022-08-22T04:25:03.613Z,97241.00
2022-08-22T04:27:41.969Z,97252.00
2022-08-22T04:30:24.509Z,97213.00
2022-08-22T04:33:06.529Z,97240.00
2022-08-22T04:35:42.516Z,97247.00
2022-08-22T04:38:17.870Z,97234.00
2022-08-22T04:40:55.177Z,97231.00
2022-08-22T04:43:33.425Z,97243.00
2022-08-22T04:46:11.240Z,97237.00
2022-08-22T04:48:48.831Z,97243.00
2022-08-22T04:51:24.762Z,97243.00
2022-08-22T04:54:27.028Z,97255.00
2022-08-22T04:57:20.095Z,97245.00
2022-08-22T04:59:49.999Z,97246.00
2022-08-22T05:02:27.572Z,97253.00
2022-08-22T05:05:04.831Z,97248.00
2022-08-22T05:07:50.328Z,97243.00
2022-08-22T05:10:24.137Z,97256.00
2022-08-22T05:13:08.845Z,97240.00
2022-08-22T05:15:39.983Z,97242.00
2022-08-22T05:18:18.085Z,97252.00
2022-08-22T05:20:50.639Z,97247.00
2022-08-22T05:23:30.071Z,97264.00
2022-08-22T05:26:03.356Z,97257.00
2022-08-22T05:28:38.440Z,97256.00
2022-08-22T05:31:11.213Z,97253.00
2022-08-22T05:33:45.587Z,97256.00
2022-08-22T05:36:21.113Z,97263.00
2022-08-22T05:38:57.056Z,97259.00
2022-08-22T05:41:33.639Z,97241.00
2022-08-22T05:44:03.072Z,97258.00
2022-08-22T05:46:43.857Z,97269.00
2022-08-22T05:49:21.544Z,97263.00
2022-08-22T05:52:08.462Z,97268.00
2022-08-22T05:54:52.259Z,97266.00
2022-08-22T05:57:29.626Z,97270.00
2022-08-22T06:00:05.991Z,97268.00
2022-08-22T06:02:54.865Z,97271.00
2022-08-22T06:05:27.727Z,97269.00
2022-08-22T06:08:03.628Z,97254.00
2022-08-22T06:10:42.255Z,97273.00
2022-08-22T06:13:21.992Z,97270.00
2022-08-22T06:16:07.303Z,97278.00
2022-08-22T06:18:41.965Z,97281.00
2022-08-22T06:21:18.733Z,97279.00
2022-08-22T06:23:53.146Z,97278.00
2022-08-22T06:26:25.224Z,97276.00
2022-08-22T06:28:59.259Z,97279.00
2022-08-22T06:31:35.182Z,97288.00
2022-08-22T06:34:11.892Z,97290.00
2022-08-22T06:36:43.827Z,97295.00
2022-08-22T06:39:20.736Z,97275.00
2022-08-22T06:41:57.052Z,97283.00
2022-08-22T06:44:32.712Z,97280.00
2022-08-22T06:47:12.182Z,97278.00
2022-08-22T06:49:43.576Z,97281.00
2022-08-22T06:52:19.244Z,97285.00
2022-08-22T06:54:50.506Z,97265.00
2022-08-22T06:57:33.313Z,97293.00
2022-08-22T07:00:08.275Z,97293.00
2022-08-22T07:02:42.258Z,97291.00
2022-08-22T07:05:19.260Z,97304.00
2022-08-22T07:07:47.827Z,97253.00
2022-08-22T07:10:17.721Z,97298.00
2022-08-22T07:12:51.593Z,97303.00
2022-08-22T07:15:30.919Z,97298.00
2022-08-22T07:18:02.903Z,97295.00
2022-08-22T07:20:35.791Z,97286.00
2022-08-22T07:23:08.780Z,97294.00
2022-08-22T07:25:51.534Z,97294.00
2022-08-22T07:28:36.946Z,97297.00
2022-08-22T07:31:33.397Z,97295.00
2022-08-22T07:34:21.909Z,97294.00
2022-08-22T07:37:00.073Z,97290.00
2022-08-22T07:39:36.395Z,97284.00
2022-08-22T07:42:15.413Z,97281.00
2022-08-22T07:45:08.259Z,97267.00
2022-08-22T07:47:57.149Z,97288.00
2022-08-22T07:50:31.037Z,97281.00
2022-08-22T07:53:09.076Z,97281.00
2022-08-22T07:55:49.279Z,97297.00
2022-08-22T07:58:19.513Z,97298.00
2022-08-22T08:00:51.992Z,97296.00
2022-08-22T08:03:24.330Z,97287.00
2022-08-22T08:05:53.709Z,97286.00
2022-08-22T08:08:27.136Z,97291.00
2022-08-22T08:10:58.278Z,97254.00
2022-08-22T08:13:32.508Z,97278.00
2022-08-22T08:16:05.468Z,97267.00
2022-08-22T08:18:37.239Z,97291.00
2022-08-22T08:21:10.628Z,97281.00
2022-08-22T08:23:45.893Z,97294.00
2022-08-22T08:26:18.837Z,97297.00
2022-08-22T08:28:50.870Z,97293.00
2022-08-22T08:31:27.437Z,97288.00
2022-08-22T08:34:05.144Z,97295.00
2022-08-22T08:36:47.454Z,97274.00
2022-08-22T08:39:24.773Z,97294.00
2022-08-22T08:42:57.433Z,97290.00
2022-08-22T08:45:45.515Z,97281.00
2022-08-22T08:48:51.836Z,97286.00
2022-08-22T08:51:57.297Z,97294.00
2022-08-22T08:54:55.579Z,97286.00
2022-08-22T08:57:55.236Z,97307.00
2022-08-22T09:00:46.064Z,97300.00
2022-08-22T09:03:44.752Z,97301.00
2022-08-22T09:06:56.789Z,97279.00
2022-08-22T09:09:56.846Z,97287.00
2022-08-22T09:13:00.249Z,97288.00
2022-08-22T09:16:08.165Z,97298.00
2022-08-22T09:19:11.683Z,97293.00
2022-08-22T09:22:22.271Z,97296.00
2022-08-22T09:25:23.893Z,97267.00
2022-08-22T09:28:02.898Z,97305.00
2022-08-22T09:30:58.331Z,97307.00
2022-08-22T09:33:38.445Z,97290.00
2022-08-22T09:36:19.874Z,97308.00
2022-08-22T09:38:58.172Z,97295.00
2022-08-22T09:41:45.362Z,97293.00
2022-08-22T09:44:39.713Z,97293.00
2022-08-22T09:47:24.660Z,97303.00
2022-08-22T09:50:08.399Z,97299.00
2022-08-22T09:53:02.957Z,97308.00
2022-08-22T09:55:48.771Z,97308.00
2022-08-22T09:58:27.768Z,97286.00
2022-08-22T10:01:00.660Z,97312.00
2022-08-22T10:04:08.437Z,97311.00
2022-08-22T10:06:51.002Z,97312.00
2022-08-22T10:09:31.338Z,97315.00
2022-08-22T10:12:12.283Z,97315.00
2022-08-22T10:15:02.056Z,97337.00
2022-08-22T10:17:36.492Z,97316.00
2022-08-22T10:20:23.125Z,97311.00
2022-08-22T10:23:08.155Z,97318.00
2022-08-22T10:25:45.174Z,97319.00
2022-08-22T10:28:28.682Z,97324.00
2022-08-22T10:31:23.380Z,97327.00
2022-08-22T10:34:07.960Z,97331.00
2022-08-22T10:36:49.411Z,97334.00
2022-08-22T10:39:25.243Z,97337.00
2022-08-22T10:42:19.419Z,97339.00
2022-08-22T10:45:23.766Z,97341.00
2022-08-22T10:48:47.160Z,97342.00
2022-08-22T10:51:25.722Z,97340.00
2022-08-22T10:54:30.875Z,97345.00
2022-08-22T10:57:16.354Z,97355.00
2022-08-22T11:00:04.779Z,97352.00
2022-08-22T11:03:00.831Z,97357.00
2022-08-22T11:05:37.954Z,97351.00
2022-08-22T11:09:02.347Z,97354.00
2022-08-22T11:11:46.386Z,97361.00
2022-08-22T11:14:58.231Z,97357.00
2022-08-22T11:18:14.562Z,97363.00
2022-08-22T11:20:57.735Z,97359.00
2022-08-22T11:23:45.560Z,97361.00
2022-08-22T11:26:47.116Z,97381.00
2022-08-22T11:29:43.430Z,97366.00
2022-08-22T11:32:20.132Z,97363.00
2022-08-22T11:34:58.469Z,97354.00
2022-08-22T11:37:56.364Z,97366.00
2022-08-22T11:40:37.143Z,97354.00
2022-08-22T11:43:33.112Z,97354.00
2022-08-22T11:46:20.052Z,97300.00
2022-08-22T11:49:06.287Z,97349.00
2022-08-22T11:51:59.699Z,97347.00
2022-08-22T11:54:42.277Z,97316.00
2022-08-22T11:57:17.475Z,97319.00
2022-08-22T12:00:10.033Z,97329.00
2022-08-22T12:02:58.892Z,97299.00
2022-08-22T12:05:34.921Z,97337.00
2022-08-22T12:08:12.020Z,97336.00
2022-08-22T12:10:50.586Z,97334.00
2022-08-22T12:13:42.453Z,97327.00
2022-08-22T12:16:22.649Z,97335.00
2022-08-22T12:19:06.491Z,97334.00
2022-08-22T12:22:41.119Z,97323.00
2022-08-22T12:25:39.356Z,97313.00
2022-08-22T12:28:30.051Z,97301.00
2022-08-22T12:31:12.954Z,97299.00
2022-08-22T12:34:02.362Z,97290.00
2022-08-22T12:37:06.473Z,97275.00
2022-08-22T12:40:26.343Z,97271.00
2022-08-22T12:43:16.384Z,97292.00
2022-08-22T12:46:16.765Z,97284.00
2022-08-22T12:49:15.723Z,97282.00
2022-08-22T12:52:04.365Z,97276.00
2022-08-22T12:55:13.871Z,97282.00
2022-08-22T12:57:56.249Z,97259.00
2022-08-22T13:00:34.596Z,97259.00
2022-08-22T13:03:09.560Z,97260.00
2022-08-22T13:05:44.777Z,97263.00
2022-08-22T13:08:30.197Z,97267.00
2022-08-22T13:11:02.445Z,97260.00
2022-08-22T13:13:38.848Z,97236.00
2022-08-22T13:16:12.274Z,97266.00
2022-08-22T13:18:53.882Z,97256.00
2022-08-22T13:21:32.075Z,97248.00
2022-08-22T13:24:10.790Z,97236.00
2022-08-22T13:26:51.989Z,97256.00
2022-08-22T13:29:27.262Z,97259.00
2022-08-22T13:32:01.607Z,97276.00
2022-08-22T13:34:40.593Z,97257.00
2022-08-22T13:37:24.357Z,97249.00
2022-08-22T13:40:01.339Z,97258.00
2022-08-22T13:42:40.120Z,97256.00
2022-08-22T13:45:18.851Z,97248.00
2022-08-22T13:47:55.054Z,97242.00
2022-08-22T13:50:27.631Z,97253.00
2022-08-22T13:53:08.018Z,97219.00
2022-08-22T13:55:49.148Z,97244.00
2022-08-22T13:58:38.583Z,97242.00
2022-08-22T14:01:28.611Z,97223.00
2022-08-22T14:04:02.759Z,97261.00
2022-08-22T14:06:43.812Z,97257.00
2022-08-22T14:09:31.782Z,97211.00
2022-08-22T14:12:13.606Z,97253.00
2022-08-22T14:14:46.191Z,97259.00
2022-08-22T14:17:22.286Z,97265.00
2022-08-22T14:20:01.780Z,97263.00
2022-08-22T14:22:35.692Z,97258.00
2022-08-22T14:25:10.101Z,97271.00
2022-08-22T14:27:45.856Z,97271.00
2022-08-22T14:30:20.282Z,97264.00
2022-08-22T14:32:54.313Z,97265.00
2022-08-22T14:35:37.629Z,97261.00
2022-08-22T14:38:30.258Z,97248.00
2022-08-22T14:41:05.793Z,97272.00
2022-08-22T14:43:53.731Z,97267.00
2022-08-22T14:46:27.698Z,97254.00
2022-08-22T14:49:26.769Z,97262.00
2022-08-22T14:52:10.493Z,97255.00
2022-08-22T14:54:48.097Z,97259.00
2022-08-22T14:57:21.663Z,97244.00
2022-08-22T14:59:53.847Z,97235.00
2022-08-22T15:02:29.848Z,97270.00
2022-08-22T15:05:11.995Z,97268.00
2022-08-22T15:07:40.699Z,97275.00
2022-08-22T15:10:22.358Z,97280.00
2022-08-22T15:12:56.427Z,97266.00
2022-08-22T15:15:49.850Z,97277.00
2022-08-22T15:18:36.713Z,97277.00
2022-08-22T15:21:11.321Z,97284.00
2022-08-22T15:23:46.716Z,97277.00
2022-08-22T15:26:26.138Z,97276.00
2022-08-22T15:29:08.860Z,97270.00
2022-08-22T15:31:41.595Z,97267.00
2022-08-22T15:34:34.131Z,97270.00
2022-08-22T15:37:32.489Z,97270.00
2022-08-22T15:40:13.044Z,97254.00
2022-08-22T15:42:45.975Z,97271.00
2022-08-22T15:45:34.065Z,97274.00
2022-08-22T15:48:08.718Z,97266.00
2022-08-22T15:50:42.703Z,97261.00
2022-08-22T15:53:21.000Z,97262.00
2022-08-22T15:56:24.173Z,97259.00
2022-08-22T15:59:17.644Z,97265.00
2022-08-22T16:01:55.464Z,97259.00
2022-08-22T16:04:40.639Z,97245.00
2022-08-22T16:07:36.198Z,97248.00
2022-08-22T16:10:14.366Z,97254.00
2022-08-22T16:12:47.598Z,97261.00
2022-08-22T16:15:57.171Z,97253.00
2022-08-22T16:19:20.878Z,97259.00
2022-08-22T16:22:12.577Z,97260.00
2022-08-22T16:25:10.440Z,97255.00
2022-08-22T16:27:55.146Z,97257.00
2022-08-22T16:30:37.254Z,97254.00
2022-08-22T16:33:17.644Z,97256.00
2022-08-22T16:36:41.814Z,97261.00
2022-08-22T16:39:33.419Z,97258.00
2022-08-22T16:42:29.493Z,97259.00
2022-08-22T16:45:13.656Z,97249.00
2022-08-22T16:47:52.817Z,97266.00
2022-08-22T16:50:34.265Z,97255.00
2022-08-22T16:53:50.515Z,97249.00
2022-08-22T16:56:31.976Z,97252.00
2022-08-22T16:59:38.316Z,97242.00
2022-08-22T17:02:47.346Z,97244.00
2022-08-22T17:05:32.358Z,97247.00
2022-08-22T17:08:26.115Z,97257.00
2022-08-22T17:11:08.572Z,97258.00
2022-08-22T17:14:10.141Z,97259.00
2022-08-22T17:17:10.179Z,97266.00
2022-08-22T17:20:11.978Z,97253.00
2022-08-22T17:22:57.908Z,97238.00
2022-08-22T17:25:36.880Z,97260.00
2022-08-22T17:28:22.318Z,97241.00
2022-08-22T17:31:05.381Z,97260.00
2022-08-22T17:34:02.604Z,97257.00
2022-08-22T17:36:50.611Z,97263.00
2022-08-22T17:39:39.033Z,97259.00
2022-08-22T17:42:47.993Z,97258.00
2022-08-22T17:45:38.711Z,97263.00
2022-08-22T17:48:19.064Z,97261.00
2022-08-22T17:50:54.734Z,97266.00
2022-08-22T17:53:37.330Z,97263.00
2022-08-22T17:56:19.865Z,97264.00
2022-08-22T17:59:00.417Z,97272.00
2022-08-22T18:01:47.123Z,97271.00
2022-08-22T18:04:29.238Z,97273.00
2022-08-22T18:07:23.448Z,97273.00
2022-08-22T18:09:59.211Z,97275.00
2022-08-22T18:12:34.780Z,97262.00
2022-08-22T18:15:12.154Z,97266.00
2022-08-22T18:17:48.825Z,97257.00
2022-08-22T18:20:26.905Z,97258.00
2022-08-22T18:23:01.392Z,97262.00
2022-08-22T18:25:45.007Z,97247.00
2022-08-22T18:28:26.894Z,97256.00
2022-08-22T18:31:02.963Z,97264.00
2022-08-22T18:33:37.313Z,97261.00
2022-08-22T18:36:19.266Z,97263.00
2022-08-22T18:38:58.363Z,97266.00
2022-08-22T18:41:35.059Z,97274.00
2022-08-22T18:44:12.346Z,97274.00
2022-08-22T18:46:47.330Z,97280.00
2022-08-22T18:49:54.210Z,97284.00
2022-08-22T18:52:47.554Z,97278.00
2022-08-22T18:55:52.394Z,97271.00
2022-08-22T18:58:52.515Z,97281.00
2022-08-22T19:01:50.847Z,97287.00
2022-08-22T19:04:45.699Z,97278.00
2022-08-22T19:07:41.816Z,97285.00
2022-08-22T19:10:38.320Z,97286.00
2022-08-22T19:13:48.046Z,97281.00
2022-08-22T19:17:02.710Z,97296.00
2022-08-22T19:20:07.956Z,97300.00
2022-08-22T19:22:38.000Z,97295.00
2022-08-22T19:25:17.586Z,97289.00
2022-08-22T19:28:25.132Z,97297.00
2022-08-22T19:31:22.704Z,97294.00
2022-08-22T19:34:16.318Z,97297.00
2022-08-22T19:36:46.491Z,97298.00
2022-08-22T19:39:58.431Z,97300.00
2022-08-22T19:42:35.180Z,97304.00
2022-08-22T19:45:21.159Z,97297.00
2022-08-22T19:48:01.376Z,97304.00
2022-08-22T19:50:37.941Z,97299.00
2022-08-22T19:53:35.611Z,97308.00
2022-08-22T19:56:23.846Z,97308.00
2022-08-22T19:59:09.915Z,97305.00
2022-08-22T20:01:53.717Z,97308.00
2022-08-22T20:04:52.738Z,97305.00
2022-08-22T20:07:44.661Z,97297.00
2022-08-22T20:10:29.524Z,97305.00
2022-08-22T20:13:07.749Z,97312.00
2022-08-22T20:16:18.017Z,97304.00
2022-08-22T20:19:16.905Z,97305.00
2022-08-22T20:21:53.940Z,97298.00
2022-08-22T20:24:32.369Z,97308.00
2022-08-22T20:27:15.362Z,97298.00
2022-08-22T20:29:52.151Z,97273.00
2022-08-22T20:32:24.634Z,97287.00
2022-08-22T20:34:59.189Z,97307.00
2022-08-22T20:38:03.266Z,97287.00
2022-08-22T20:40:56.411Z,97306.00
2022-08-22T20:43:35.837Z,97294.00
2022-08-22T20:46:24.202Z,97299.00
2022-08-22T20:48:57.095Z,97297.00
2022-08-22T20:51:29.290Z,97301.00
2022-08-22T20:54:00.906Z,97301.00
2022-08-22T20:56:51.665Z,97306.00
2022-08-22T20:59:37.004Z,97295.00
2022-08-22T21:02:12.738Z,97311.00
2022-08-22T21:04:52.841Z,97300.00
2022-08-22T21:07:30.111Z,97304.00
2022-08-22T21:10:22.807Z,97307.00
2022-08-22T21:13:10.763Z,97298.00
2022-08-22T21:15:43.139Z,97309.00
2022-08-22T21:18:23.908Z,97310.00
2022-08-22T21:20:53.475Z,97317.00
2022-08-22T21:23:22.052Z,97302.00
2022-08-22T21:25:59.937Z,97301.00
2022-08-22T21:28:34.162Z,97301.00
2022-08-22T21:31:12.640Z,97290.00
2022-08-22T21:33:47.557Z,97303.00
2022-08-22T21:36:20.042Z,97306.00
2022-08-22T21:38:52.661Z,97308.00
2022-08-22T21:41:31.439Z,97316.00
2022-08-22T21:44:28.743Z,97318.00
2022-08-22T21:46:58.816Z,97313.00
2022-08-22T21:49:30.417Z,97317.00
2022-08-22T21:51:59.677Z,97316.00
2022-08-22T21:54:41.323Z,97312.00
2022-08-22T21:57:33.338Z,97310.00
2022-08-22T22:00:01.331Z,97312.00
2022-08-22T22:02:36.510Z,97317.00
2022-08-22T22:05:10.349Z,97308.00
2022-08-22T22:07:44.603Z,97299.00
2022-08-22T22:10:16.677Z,97298.00
2022-08-22T22:12:47.764Z,97285.00
2022-08-22T22:15:21.478Z,97304.00
2022-08-22T22:17:49.692Z,97289.00
2022-08-22T22:20:21.287Z,97294.00
2022-08-22T22:22:51.479Z,97298.00
2022-08-22T22:25:39.193Z,97313.00
2022-08-22T22:28:13.639Z,97300.00
2022-08-22T22:30:42.983Z,97292.00
2022-08-22T22:33:11.751Z,97291.00
2022-08-22T22:35:41.616Z,97295.00
2022-08-22T22:38:11.372Z,97303.00
2022-08-22T22:40:39.425Z,97290.00
2022-08-22T22:43:07.377Z,97300.00
2022-08-22T22:45:35.541Z,97299.00
2022-08-22T22:48:06.529Z,97304.00
2022-08-22T22:50:40.420Z,97302.00
2022-08-22T22:53:11.249Z,97308.00
2022-08-22T22:55:41.530Z,97297.00
2022-08-22T22:58:13.501Z,97275.00
2022-08-22T23:00:43.669Z,97291.00
2022-08-22T23:03:11.720Z,97294.00
2022-08-22T23:05:39.631Z,97301.00
2022-08-22T23:08:07.644Z,97291.00
2022-08-22T23:10:36.928Z,97292.00
2022-08-22T23:13:06.637Z,97295.00
2022-08-22T23:15:34.638Z,97290.00
2022-08-22T23:18:02.633Z,97302.00
2022-08-22T23:20:30.604Z,97300.00
2022-08-22T23:22:59.495Z,97305.00
2022-08-22T23:25:27.551Z,97305.00
2022-08-22T23:27:57.380Z,97315.00
2022-08-22T23:30:25.345Z,97303.00
2022-08-22T23:32:53.685Z,97303.00
2022-08-22T23:35:21.616Z,97305.00
2022-08-22T23:37:49.571Z,97299.00
2022-08-22T23:40:17.906Z,97301.00
2022-08-22T23:42:45.896Z,97302.00
2022-08-22T23:45:15.165Z,97302.00
2022-08-22T23:47:43.079Z,97310.00
2022-08-22T23:50:11.150Z,97304.00
2022-08-22T23:52:39.142Z,97309.00
2022-08-22T23:55:08.236Z,97305.00
2022-08-22T23:57:36.406Z,97301.00
